Stena Europe — VSTA3 — position and weather

sailwx.info

Track history (hours):
 
Tides and Currents Weather Stations Pressure Air Temp Water Temp Dewpoint Dewpoint Depression Visibility Wind Speed Wind Dir Waves Ship Positions

Stena Europe

Operator: Stena Line

Last reported at 2018-Feb-06 01:00 UTC. Time now 2018-Feb-18 10:48 UTC.
Position N 50°09' W 005°03'.
Warning: this ship's position is 12 days out of date.

Length 149 m; draft 5.9 m.

Type: Passenger vessel. MMSI: 235004539.

Date/timePositionNaut miles runAvg speedWind from/ knotsBaromVisibWave heightAir tempDewpointWater temp
2018-Feb-06 01:00N 50°09' W 005°03'0 0.0
2018-Feb-06 00:12N 50°09' W 005°03'0 0.0
2018-Feb-05 23:48N 50°09' W 005°03'0 0.0
2018-Feb-05 23:21N 50°09' W 005°03'0 0.0
2018-Feb-05 22:06N 50°09' W 005°03'0 0.0
2018-Feb-05 21:59N 50°09' W 005°03'0 0.0
2018-Feb-05 20:34N 50°09' W 005°03'0 0.0
2018-Feb-05 20:30N 50°09' W 005°03'0 0.3
2018-Feb-05 20:00N 50°09' W 005°03'0 0.5
2018-Feb-05 19:30N 50°09' W 005°04'0 0.0
2018-Feb-05 19:00N 50°09' W 005°04'0 0.0
2018-Feb-05 18:30N 50°09' W 005°04'0 0.0
2018-Feb-05 18:00N 50°09' W 005°04'0 0.0
2018-Feb-05 17:30N 50°09' W 005°04'0 0.0
2018-Feb-05 17:00N 50°09' W 005°04'0 0.0
2018-Feb-05 16:30N 50°09' W 005°04'0 0.0
2018-Feb-05 16:00N 50°09' W 005°04'0 0.0
2018-Feb-05 15:30N 50°09' W 005°04'0 0.0
2018-Feb-05 15:00N 50°09' W 005°04'0 0.0
2018-Feb-05 14:30N 50°09' W 005°04'0 0.0
2018-Feb-05 14:00N 50°09' W 005°04'0 0.0
2018-Feb-05 13:30N 50°09' W 005°04'0 0.0
2018-Feb-05 13:00N 50°09' W 005°04'0 0.0
2018-Feb-05 12:30N 50°09' W 005°04'0 0.0
2018-Feb-05 12:00N 50°09' W 005°04'0 0.0
2018-Feb-05 11:30N 50°09' W 005°04'0 0.0
2018-Feb-05 11:00N 50°09' W 005°04'0 0.0
2018-Feb-05 10:30N 50°09' W 005°04'0 0.0
2018-Feb-05 10:00N 50°09' W 005°04'0 0.0
2018-Feb-05 09:30N 50°09' W 005°04'0 0.0
2018-Feb-05 09:00N 50°09' W 005°04'0 0.0
2018-Feb-05 08:30N 50°09' W 005°04'0 0.0
2018-Feb-05 08:00N 50°09' W 005°04'0 0.0
2018-Feb-05 07:30N 50°09' W 005°04'0 0.5
2018-Feb-05 06:57N 50°09' W 005°04'3 7.9
2018-Feb-05 06:30N 50°06' W 005°01'1313.3
2018-Feb-05 05:31N 49°55' W 005°13'816.4
2018-Feb-05 05:00N 49°56' W 005°26'815.7
2018-Feb-05 04:30N 49°55' W 005°38'1115.2
2018-Feb-05 03:48N 49°56' W 005°55'2515.1
2018-Feb-05 02:07N 50°21' W 006°02'  
2018-Feb-02 18:42N 52°13' W 006°05'317.1
2018-Feb-02 18:30N 52°14' W 006°10'612.4
2018-Feb-02 18:00N 52°15' W 006°20'0 0.0
2018-Feb-02 17:30N 52°15' W 006°20'0 0.0
2018-Feb-02 17:00N 52°15' W 006°20'0 0.6
2018-Feb-02 16:30N 52°16' W 006°20'1615.7
2018-Feb-02 15:30N 52°11' W 005°56'8 1.4
2018-Feb-02 09:36N 52°10' W 005°43'217.0
2018-Feb-02 09:29N 52°10' W 005°46'817.0
2018-Feb-02 09:00N 52°12' W 005°59'917.0
2018-Feb-02 08:30N 52°14' W 006°12'510.2
2018-Feb-02 08:00N 52°15' W 006°20'0 0.0
2018-Feb-02 07:30N 52°15' W 006°20'0 0.0
2018-Feb-02 07:00N 52°15' W 006°20'0 0.0
2018-Feb-02 06:30N 52°15' W 006°20'0 0.0
2018-Feb-02 06:00N 52°15' W 006°20'0 0.0
2018-Feb-02 05:30N 52°15' W 006°20'0 0.0
2018-Feb-02 05:00N 52°15' W 006°20'0 0.0
2018-Feb-02 04:30N 52°15' W 006°20'3 5.8
2018-Feb-02 04:00N 52°14' W 006°16'815.2
2018-Feb-02 03:30N 52°13' W 006°03'714.7
2018-Feb-02 03:00N 52°11' W 005°52'17 2.3
2018-Feb-01 19:30N 52°15' W 006°19'1 2.0
2018-Feb-01 19:01N 52°15' W 006°20'0 0.0
2018-Feb-01 18:30N 52°15' W 006°20'0 0.0
2018-Feb-01 18:00N 52°15' W 006°20'0 0.0
2018-Feb-01 17:29N 52°15' W 006°20'0 0.5
2018-Feb-01 17:00N 52°15' W 006°21'713.4
2018-Feb-01 16:30N 52°14' W 006°10'815.5
2018-Feb-01 16:00N 52°13' W 005°57'815.1
2018-Feb-01 15:30N 52°11' W 005°45'2 0.3
2018-Feb-01 09:23N 52°09' W 005°43'616.9
2018-Feb-01 09:00N 52°11' W 005°53'917.2
2018-Feb-01 08:29N 52°13' W 006°08'8 8.1
2018-Feb-01 07:30N 52°15' W 006°20'0 0.0
2018-Feb-01 07:00N 52°15' W 006°20'0 0.0
2018-Feb-01 06:30N 52°15' W 006°20'0 0.0
2018-Feb-01 06:00N 52°15' W 006°20'0 0.0
2018-Feb-01 05:30N 52°15' W 006°20'0 0.0
2018-Feb-01 05:00N 52°15' W 006°20'0 0.0
2018-Feb-01 04:30N 52°15' W 006°20'0 0.3
2018-Feb-01 04:00N 52°15' W 006°20'1313.3
2018-Feb-01 03:00N 52°12' W 005°59'612.7
2018-Feb-01 02:30N 52°10' W 005°49'3 0.4
2018-Jan-31 20:01N 52°10' W 005°45'117.2
2018-Jan-31 19:59N 52°10' W 005°46'817.1
2018-Jan-31 19:30N 52°12' W 005°59'917.1
2018-Jan-31 19:00N 52°14' W 006°13'5 9.5
2018-Jan-31 18:30N 52°15' W 006°20'0 0.0
2018-Jan-31 18:00N 52°15' W 006°20'0 0.0
2018-Jan-31 17:30N 52°15' W 006°20'1 1.8
2018-Jan-31 17:00N 52°16' W 006°19'815.0
2018-Jan-31 16:30N 52°13' W 006°07'713.9
2018-Jan-31 16:00N 52°11' W 005°56'714.0
2018-Jan-31 15:30N 52°09' W 005°45'13 1.8
2018-Jan-31 08:30N 52°13' W 006°05'816.7
2018-Jan-31 08:00N 52°15' W 006°18'1 3.0
2018-Jan-31 07:30N 52°15' W 006°20'0 0.0
2018-Jan-31 07:00N 52°15' W 006°20'0 0.0
2018-Jan-31 06:30N 52°15' W 006°20'0 0.0
2018-Jan-31 06:00N 52°15' W 006°20'0 0.0
2018-Jan-31 05:30N 52°15' W 006°20'0 0.0
2018-Jan-31 05:00N 52°15' W 006°20'0 0.0
2018-Jan-31 04:30N 52°15' W 006°20'0 0.0
2018-Jan-31 04:00N 52°15' W 006°20'1 1.3
2018-Jan-31 03:30N 52°16' W 006°19'713.9
2018-Jan-31 03:00N 52°13' W 006°09'612.7
2018-Jan-31 02:30N 52°12' W 005°58'613.0
2018-Jan-31 02:00N 52°10' W 005°48'2 0.3
2018-Jan-30 19:19N 52°10' W 005°46'517.0
2018-Jan-30 19:01N 52°11' W 005°54'917.1
2018-Jan-30 18:30N 52°13' W 006°07'816.2
2018-Jan-30 18:00N 52°16' W 006°20'0 0.7
2018-Jan-30 17:30N 52°15' W 006°20'0 0.0
2018-Jan-30 17:00N 52°15' W 006°20'0 0.0
2018-Jan-30 16:30N 52°15' W 006°20'4 8.0
2018-Jan-30 16:00N 52°14' W 006°14'816.7
2018-Jan-30 15:30N 52°13' W 006°00'916.8
2018-Jan-30 15:00N 52°10' W 005°47'5 0.9
2018-Jan-30 08:49N 52°11' W 005°56'517.1
2018-Jan-30 08:30N 52°13' W 006°04'817.0
2018-Jan-30 08:00N 52°15' W 006°18'2 3.1
2018-Jan-30 07:31N 52°15' W 006°20'0 0.0
2018-Jan-30 07:01N 52°15' W 006°20'0 0.0
2018-Jan-30 06:30N 52°15' W 006°20'0 0.0
2018-Jan-30 06:00N 52°15' W 006°20'0 0.0
2018-Jan-30 05:30N 52°15' W 006°20'0 0.0
2018-Jan-30 05:01N 52°15' W 006°20'0 0.0
2018-Jan-30 04:30N 52°15' W 006°20'0 0.0
2018-Jan-30 04:01N 52°15' W 006°20'4 7.4
2018-Jan-30 03:30N 52°14' W 006°14'714.7
2018-Jan-30 03:00N 52°12' W 006°03'714.2
2018-Jan-30 02:30N 52°10' W 005°52'713.4
2018-Jan-30 02:00N 52°10' W 005°41'12 1.7
2018-Jan-29 19:00N 52°12' W 005°60'917.4
2018-Jan-29 18:30N 52°14' W 006°13'4 9.0
2018-Jan-29 18:00N 52°15' W 006°20'0 0.0
2018-Jan-29 17:30N 52°15' W 006°20'0 0.0
2018-Jan-29 17:00N 52°15' W 006°20'0 0.4
2018-Jan-29 16:30N 52°15' W 006°20'714.9
2018-Jan-29 16:00N 52°14' W 006°09'816.2
2018-Jan-29 15:30N 52°12' W 005°56'1 0.1
2018-Jan-29 08:51N 52°11' W 005°55'616.8
2018-Jan-29 08:30N 52°13' W 006°04'816.9
2018-Jan-29 08:00N 52°15' W 006°18'2 3.3
2018-Jan-29 07:30N 52°15' W 006°20'0 0.0
2018-Jan-29 07:00N 52°15' W 006°20'0 0.0
2018-Jan-29 06:30N 52°15' W 006°20'0 0.0
2018-Jan-29 06:00N 52°15' W 006°20'0 0.0
2018-Jan-29 05:30N 52°15' W 006°20'0 0.0
2018-Jan-29 05:00N 52°15' W 006°20'0 0.0
2018-Jan-29 04:30N 52°15' W 006°20'0 0.0
2018-Jan-29 04:00N 52°15' W 006°20'5 9.3
2018-Jan-29 03:30N 52°14' W 006°13'713.7
2018-Jan-29 03:00N 52°12' W 006°02'713.5
2018-Jan-29 02:30N 52°11' W 005°51'6 0.8
2018-Jan-28 18:54N 52°12' W 006°01'717.1
2018-Jan-28 18:29N 52°14' W 006°12'510.5
2018-Jan-28 18:00N 52°15' W 006°20'0 0.0
2018-Jan-28 17:30N 52°15' W 006°20'0 0.0
2018-Jan-28 17:00N 52°15' W 006°20'5 9.2
2018-Jan-28 16:30N 52°14' W 006°13'815.1
2018-Jan-28 16:00N 52°13' W 006°01'814.8
2018-Jan-28 15:28N 52°11' W 005°48'5 0.8
2018-Jan-28 08:47N 52°11' W 005°56'517.0
2018-Jan-28 08:30N 52°13' W 006°04'917.4
2018-Jan-28 08:00N 52°15' W 006°17'2 3.4
2018-Jan-28 07:30N 52°15' W 006°20'0 0.0
2018-Jan-28 07:00N 52°15' W 006°20'0 0.0
2018-Jan-28 06:30N 52°15' W 006°20'0 0.0
2018-Jan-28 06:00N 52°15' W 006°20'0 0.0
2018-Jan-28 05:30N 52°15' W 006°20'0 0.0
2018-Jan-28 05:00N 52°15' W 006°20'0 0.0
2018-Jan-28 04:30N 52°15' W 006°20'0 0.0
2018-Jan-28 04:00N 52°15' W 006°20'5 9.1
2018-Jan-28 03:30N 52°14' W 006°13'612.8
2018-Jan-28 03:01N 52°13' W 006°03'612.6
2018-Jan-28 02:30N 52°11' W 005°53'712.8
2018-Jan-28 01:58N 52°10' W 005°42'9 1.4
2018-Jan-27 19:22N 52°12' W 005°57'617.4
2018-Jan-27 19:00N 52°13' W 006°07'816.9
2018-Jan-27 18:30N 52°16' W 006°20'0 0.5
2018-Jan-27 18:00N 52°15' W 006°20'0 0.0
2018-Jan-27 17:30N 52°15' W 006°20'2 3.4
2018-Jan-27 17:00N 52°15' W 006°17'815.8
2018-Jan-27 16:30N 52°13' W 006°05'815.1
2018-Jan-27 16:00N 52°12' W 005°53'1 0.1
2018-Jan-27 09:05N 52°11' W 005°54'116.4
2018-Jan-27 09:00N 52°11' W 005°56'816.4
2018-Jan-27 08:30N 52°13' W 006°09'713.9
2018-Jan-27 08:00N 52°15' W 006°20'0 0.0
2018-Jan-27 07:30N 52°15' W 006°20'0 0.0
2018-Jan-27 07:00N 52°15' W 006°20'0 0.0
2018-Jan-27 06:30N 52°15' W 006°20'0 0.0
2018-Jan-27 06:00N 52°15' W 006°20'0 0.0
2018-Jan-27 05:30N 52°15' W 006°20'0 0.0
2018-Jan-27 05:00N 52°15' W 006°20'0 0.0
2018-Jan-27 04:30N 52°15' W 006°20'0 0.0
2018-Jan-27 04:00N 52°15' W 006°20'3 5.8
2018-Jan-27 03:30N 52°14' W 006°16'713.9
2018-Jan-27 03:00N 52°13' W 006°05'713.4
2018-Jan-27 02:30N 52°11' W 005°54'  
Track history (hours):
 
Tides and Currents Weather Stations Pressure Air Temp Water Temp Dewpoint Dewpoint Depression Visibility Wind Speed Wind Dir Waves Ship Positions

Stena Europe

Operator: Stena Line

Last reported at 2018-Feb-06 01:00 UTC. Time now 2018-Feb-18 10:48 UTC.
Position N 50°09' W 005°03'.
Warning: this ship's position is 12 days out of date.

Length 149 m; draft 5.9 m.

Type: Passenger vessel. MMSI: 235004539.

Date/timePositionNaut miles runAvg speedWind from/ knotsBaromVisibWave heightAir tempDewpointWater temp
2018-Feb-06 01:00N 50°09' W 005°03'0 0.0
2018-Feb-06 00:12N 50°09' W 005°03'0 0.0
2018-Feb-05 23:48N 50°09' W 005°03'0 0.0
2018-Feb-05 23:21N 50°09' W 005°03'0 0.0
2018-Feb-05 22:06N 50°09' W 005°03'0 0.0
2018-Feb-05 21:59N 50°09' W 005°03'0 0.0
2018-Feb-05 20:34N 50°09' W 005°03'0 0.0
2018-Feb-05 20:30N 50°09' W 005°03'0 0.3
2018-Feb-05 20:00N 50°09' W 005°03'0 0.5
2018-Feb-05 19:30N 50°09' W 005°04'0 0.0
2018-Feb-05 19:00N 50°09' W 005°04'0 0.0
2018-Feb-05 18:30N 50°09' W 005°04'0 0.0
2018-Feb-05 18:00N 50°09' W 005°04'0 0.0
2018-Feb-05 17:30N 50°09' W 005°04'0 0.0
2018-Feb-05 17:00N 50°09' W 005°04'0 0.0
2018-Feb-05 16:30N 50°09' W 005°04'0 0.0
2018-Feb-05 16:00N 50°09' W 005°04'0 0.0
2018-Feb-05 15:30N 50°09' W 005°04'0 0.0
2018-Feb-05 15:00N 50°09' W 005°04'0 0.0
2018-Feb-05 14:30N 50°09' W 005°04'0 0.0
2018-Feb-05 14:00N 50°09' W 005°04'0 0.0
2018-Feb-05 13:30N 50°09' W 005°04'0 0.0
2018-Feb-05 13:00N 50°09' W 005°04'0 0.0
2018-Feb-05 12:30N 50°09' W 005°04'0 0.0
2018-Feb-05 12:00N 50°09' W 005°04'0 0.0
2018-Feb-05 11:30N 50°09' W 005°04'0 0.0
2018-Feb-05 11:00N 50°09' W 005°04'0 0.0
2018-Feb-05 10:30N 50°09' W 005°04'0 0.0
2018-Feb-05 10:00N 50°09' W 005°04'0 0.0
2018-Feb-05 09:30N 50°09' W 005°04'0 0.0
2018-Feb-05 09:00N 50°09' W 005°04'0 0.0
2018-Feb-05 08:30N 50°09' W 005°04'0 0.0
2018-Feb-05 08:00N 50°09' W 005°04'0 0.0
2018-Feb-05 07:30N 50°09' W 005°04'0 0.5
2018-Feb-05 06:57N 50°09' W 005°04'3 7.9
2018-Feb-05 06:30N 50°06' W 005°01'1313.3
2018-Feb-05 05:31N 49°55' W 005°13'816.4
2018-Feb-05 05:00N 49°56' W 005°26'815.7
2018-Feb-05 04:30N 49°55' W 005°38'1115.2
2018-Feb-05 03:48N 49°56' W 005°55'2515.1
2018-Feb-05 02:07N 50°21' W 006°02'  
2018-Feb-02 18:42N 52°13' W 006°05'317.1
2018-Feb-02 18:30N 52°14' W 006°10'612.4
2018-Feb-02 18:00N 52°15' W 006°20'0 0.0
2018-Feb-02 17:30N 52°15' W 006°20'0 0.0
2018-Feb-02 17:00N 52°15' W 006°20'0 0.6
2018-Feb-02 16:30N 52°16' W 006°20'1615.7
2018-Feb-02 15:30N 52°11' W 005°56'8 1.4
2018-Feb-02 09:36N 52°10' W 005°43'217.0
2018-Feb-02 09:29N 52°10' W 005°46'817.0
2018-Feb-02 09:00N 52°12' W 005°59'917.0
2018-Feb-02 08:30N 52°14' W 006°12'510.2
2018-Feb-02 08:00N 52°15' W 006°20'0 0.0
2018-Feb-02 07:30N 52°15' W 006°20'0 0.0
2018-Feb-02 07:00N 52°15' W 006°20'0 0.0
2018-Feb-02 06:30N 52°15' W 006°20'0 0.0
2018-Feb-02 06:00N 52°15' W 006°20'0 0.0
2018-Feb-02 05:30N 52°15' W 006°20'0 0.0
2018-Feb-02 05:00N 52°15' W 006°20'0 0.0
2018-Feb-02 04:30N 52°15' W 006°20'3 5.8
2018-Feb-02 04:00N 52°14' W 006°16'815.2
2018-Feb-02 03:30N 52°13' W 006°03'714.7
2018-Feb-02 03:00N 52°11' W 005°52'17 2.3
2018-Feb-01 19:30N 52°15' W 006°19'1 2.0
2018-Feb-01 19:01N 52°15' W 006°20'0 0.0
2018-Feb-01 18:30N 52°15' W 006°20'0 0.0
2018-Feb-01 18:00N 52°15' W 006°20'0 0.0
2018-Feb-01 17:29N 52°15' W 006°20'0 0.5
2018-Feb-01 17:00N 52°15' W 006°21'713.4
2018-Feb-01 16:30N 52°14' W 006°10'815.5
2018-Feb-01 16:00N 52°13' W 005°57'815.1
2018-Feb-01 15:30N 52°11' W 005°45'2 0.3
2018-Feb-01 09:23N 52°09' W 005°43'616.9
2018-Feb-01 09:00N 52°11' W 005°53'917.2
2018-Feb-01 08:29N 52°13' W 006°08'8 8.1
2018-Feb-01 07:30N 52°15' W 006°20'0 0.0
2018-Feb-01 07:00N 52°15' W 006°20'0 0.0
2018-Feb-01 06:30N 52°15' W 006°20'0 0.0
2018-Feb-01 06:00N 52°15' W 006°20'0 0.0
2018-Feb-01 05:30N 52°15' W 006°20'0 0.0
2018-Feb-01 05:00N 52°15' W 006°20'0 0.0
2018-Feb-01 04:30N 52°15' W 006°20'0 0.3
2018-Feb-01 04:00N 52°15' W 006°20'1313.3
2018-Feb-01 03:00N 52°12' W 005°59'612.7
2018-Feb-01 02:30N 52°10' W 005°49'3 0.4
2018-Jan-31 20:01N 52°10' W 005°45'117.2
2018-Jan-31 19:59N 52°10' W 005°46'817.1
2018-Jan-31 19:30N 52°12' W 005°59'917.1
2018-Jan-31 19:00N 52°14' W 006°13'5 9.5
2018-Jan-31 18:30N 52°15' W 006°20'0 0.0
2018-Jan-31 18:00N 52°15' W 006°20'0 0.0
2018-Jan-31 17:30N 52°15' W 006°20'1 1.8
2018-Jan-31 17:00N 52°16' W 006°19'815.0
2018-Jan-31 16:30N 52°13' W 006°07'713.9
2018-Jan-31 16:00N 52°11' W 005°56'714.0
2018-Jan-31 15:30N 52°09' W 005°45'13 1.8
2018-Jan-31 08:30N 52°13' W 006°05'816.7
2018-Jan-31 08:00N 52°15' W 006°18'1 3.0
2018-Jan-31 07:30N 52°15' W 006°20'0 0.0
2018-Jan-31 07:00N 52°15' W 006°20'0 0.0
2018-Jan-31 06:30N 52°15' W 006°20'0 0.0
2018-Jan-31 06:00N 52°15' W 006°20'0 0.0
2018-Jan-31 05:30N 52°15' W 006°20'0 0.0
2018-Jan-31 05:00N 52°15' W 006°20'0 0.0
2018-Jan-31 04:30N 52°15' W 006°20'0 0.0
2018-Jan-31 04:00N 52°15' W 006°20'1 1.3
2018-Jan-31 03:30N 52°16' W 006°19'713.9
2018-Jan-31 03:00N 52°13' W 006°09'612.7
2018-Jan-31 02:30N 52°12' W 005°58'613.0
2018-Jan-31 02:00N 52°10' W 005°48'2 0.3
2018-Jan-30 19:19N 52°10' W 005°46'517.0
2018-Jan-30 19:01N 52°11' W 005°54'917.1
2018-Jan-30 18:30N 52°13' W 006°07'816.2
2018-Jan-30 18:00N 52°16' W 006°20'0 0.7
2018-Jan-30 17:30N 52°15' W 006°20'0 0.0
2018-Jan-30 17:00N 52°15' W 006°20'0 0.0
2018-Jan-30 16:30N 52°15' W 006°20'4 8.0
2018-Jan-30 16:00N 52°14' W 006°14'816.7
2018-Jan-30 15:30N 52°13' W 006°00'916.8
2018-Jan-30 15:00N 52°10' W 005°47'5 0.9
2018-Jan-30 08:49N 52°11' W 005°56'517.1
2018-Jan-30 08:30N 52°13' W 006°04'817.0
2018-Jan-30 08:00N 52°15' W 006°18'2 3.1
2018-Jan-30 07:31N 52°15' W 006°20'0 0.0
2018-Jan-30 07:01N 52°15' W 006°20'0 0.0
2018-Jan-30 06:30N 52°15' W 006°20'0 0.0
2018-Jan-30 06:00N 52°15' W 006°20'0 0.0
2018-Jan-30 05:30N 52°15' W 006°20'0 0.0
2018-Jan-30 05:01N 52°15' W 006°20'0 0.0
2018-Jan-30 04:30N 52°15' W 006°20'0 0.0
2018-Jan-30 04:01N 52°15' W 006°20'4 7.4
2018-Jan-30 03:30N 52°14' W 006°14'714.7
2018-Jan-30 03:00N 52°12' W 006°03'714.2
2018-Jan-30 02:30N 52°10' W 005°52'713.4
2018-Jan-30 02:00N 52°10' W 005°41'12 1.7
2018-Jan-29 19:00N 52°12' W 005°60'917.4
2018-Jan-29 18:30N 52°14' W 006°13'4 9.0
2018-Jan-29 18:00N 52°15' W 006°20'0 0.0
2018-Jan-29 17:30N 52°15' W 006°20'0 0.0
2018-Jan-29 17:00N 52°15' W 006°20'0 0.4
2018-Jan-29 16:30N 52°15' W 006°20'714.9
2018-Jan-29 16:00N 52°14' W 006°09'816.2
2018-Jan-29 15:30N 52°12' W 005°56'1 0.1
2018-Jan-29 08:51N 52°11' W 005°55'616.8
2018-Jan-29 08:30N 52°13' W 006°04'816.9
2018-Jan-29 08:00N 52°15' W 006°18'2 3.3
2018-Jan-29 07:30N 52°15' W 006°20'0 0.0
2018-Jan-29 07:00N 52°15' W 006°20'0 0.0
2018-Jan-29 06:30N 52°15' W 006°20'0 0.0
2018-Jan-29 06:00N 52°15' W 006°20'0 0.0
2018-Jan-29 05:30N 52°15' W 006°20'0 0.0
2018-Jan-29 05:00N 52°15' W 006°20'0 0.0
2018-Jan-29 04:30N 52°15' W 006°20'0 0.0
2018-Jan-29 04:00N 52°15' W 006°20'5 9.3
2018-Jan-29 03:30N 52°14' W 006°13'713.7
2018-Jan-29 03:00N 52°12' W 006°02'713.5
2018-Jan-29 02:30N 52°11' W 005°51'6 0.8
2018-Jan-28 18:54N 52°12' W 006°01'717.1
2018-Jan-28 18:29N 52°14' W 006°12'510.5
2018-Jan-28 18:00N 52°15' W 006°20'0 0.0
2018-Jan-28 17:30N 52°15' W 006°20'0 0.0
2018-Jan-28 17:00N 52°15' W 006°20'5 9.2
2018-Jan-28 16:30N 52°14' W 006°13'815.1
2018-Jan-28 16:00N 52°13' W 006°01'814.8
2018-Jan-28 15:28N 52°11' W 005°48'5 0.8
2018-Jan-28 08:47N 52°11' W 005°56'517.0
2018-Jan-28 08:30N 52°13' W 006°04'917.4
2018-Jan-28 08:00N 52°15' W 006°17'2 3.4
2018-Jan-28 07:30N 52°15' W 006°20'0 0.0
2018-Jan-28 07:00N 52°15' W 006°20'0 0.0
2018-Jan-28 06:30N 52°15' W 006°20'0 0.0
2018-Jan-28 06:00N 52°15' W 006°20'0 0.0
2018-Jan-28 05:30N 52°15' W 006°20'0 0.0
2018-Jan-28 05:00N 52°15' W 006°20'0 0.0
2018-Jan-28 04:30N 52°15' W 006°20'0 0.0
2018-Jan-28 04:00N 52°15' W 006°20'5 9.1
2018-Jan-28 03:30N 52°14' W 006°13'612.8
2018-Jan-28 03:01N 52°13' W 006°03'612.6
2018-Jan-28 02:30N 52°11' W 005°53'712.8
2018-Jan-28 01:58N 52°10' W 005°42'9 1.4
2018-Jan-27 19:22N 52°12' W 005°57'617.4
2018-Jan-27 19:00N 52°13' W 006°07'816.9
2018-Jan-27 18:30N 52°16' W 006°20'0 0.5
2018-Jan-27 18:00N 52°15' W 006°20'0 0.0
2018-Jan-27 17:30N 52°15' W 006°20'2 3.4
2018-Jan-27 17:00N 52°15' W 006°17'815.8
2018-Jan-27 16:30N 52°13' W 006°05'815.1
2018-Jan-27 16:00N 52°12' W 005°53'1 0.1
2018-Jan-27 09:05N 52°11' W 005°54'116.4
2018-Jan-27 09:00N 52°11' W 005°56'816.4
2018-Jan-27 08:30N 52°13' W 006°09'713.9
2018-Jan-27 08:00N 52°15' W 006°20'0 0.0
2018-Jan-27 07:30N 52°15' W 006°20'0 0.0
2018-Jan-27 07:00N 52°15' W 006°20'0 0.0
2018-Jan-27 06:30N 52°15' W 006°20'0 0.0
2018-Jan-27 06:00N 52°15' W 006°20'0 0.0
2018-Jan-27 05:30N 52°15' W 006°20'0 0.0
2018-Jan-27 05:00N 52°15' W 006°20'0 0.0
2018-Jan-27 04:30N 52°15' W 006°20'0 0.0
2018-Jan-27 04:00N 52°15' W 006°20'3 5.8
2018-Jan-27 03:30N 52°14' W 006°16'713.9
2018-Jan-27 03:00N 52°13' W 006°05'713.4
2018-Jan-27 02:30N 52°11' W 005°54'  

Dump ship's entire track history